PWSweather.com
Personal Weather Stations
Station Observations
DW1039
Liberty & Fairfield Townships, Hamilton, OH 45011

Liberty & Fairfield TownshipsHamilton, OH 45011

Lat: 39.3933, Lon: -84.477

Elevation: 780

Station Type: Davis Vantage Pro2 (Daytime Fan Aspirated)

http://www.lfweathercenter.com/

High Low Average
Temperature 41.3°F5.2°C 33.4°F0.8°C 36.5°F2.5°C
Dew Point 34.0°F1.1°C 16.7°F-8.5°C 27.9°F-2.3°C
Winds 26.0 mph 41.8 kmh Calm Calm 8.0 mph SW12.9 kmh SW
Wind Gusts 33.0 mph53.1 kmh -- 15.0 mph24.1 kmh
Humidity 92% 44% 73%
Pressure 30.30 in1026.1 mb 29.95 in1014.2 mb -
Precipitation 0.00 in0.0 mm - -
Hour Temp Dew Point Humidity Winds Wind Gusts Pressure Precip Precip Rate Daily Precip Total
12:01 AM 34.6°F1.4°C 30.0°F-1.1°C 83% Calm Calm -- 30.07 in1018.3 mb 0.00 in0.0 mm 0.00 in/hr0.0 mm/hr 0.00 in0.0 mm
12:10 AM 34.3°F1.3°C 30.0°F-1.1°C 84% Calm Calm -- 30.06 in1017.9 mb 0.00 in0.0 mm 0.00 in/hr0.0 mm/hr 0.00 in0.0 mm
12:20 AM 33.8°F1.0°C 30.1°F-1.1°C 86% Calm Calm -- 30.05 in1017.6 mb 0.00 in0.0 mm 0.00 in/hr0.0 mm/hr 0.00 in0.0 mm
12:30 AM 33.4°F0.8°C 30.2°F-1.0°C 88% Calm Calm -- 30.04 in1017.3 mb 0.00 in0.0 mm 0.00 in/hr0.0 mm/hr 0.00 in0.0 mm
12:40 AM 33.4°F0.8°C 30.2°F-1.0°C 88% Calm Calm -- 30.05 in1017.6 mb 0.00 in0.0 mm 0.00 in/hr0.0 mm/hr 0.00 in0.0 mm
12:50 AM 33.4°F0.8°C 30.2°F-1.0°C 88% Calm Calm -- 30.04 in1017.3 mb 0.00 in0.0 mm 0.00 in/hr0.0 mm/hr 0.00 in0.0 mm
01:00 AM 33.9°F1.1°C 30.5°F-0.8°C 87% Calm Calm -- 30.04 in1017.3 mb 0.00 in0.0 mm 0.00 in/hr0.0 mm/hr 0.00 in0.0 mm
01:10 AM 33.9°F1.1°C 30.5°F-0.8°C 87% Calm Calm 1.0 mph1.6 kmh 30.04 in1017.3 mb 0.00 in0.0 mm 0.00 in/hr0.0 mm/hr 0.00 in0.0 mm
01:20 AM 34.0°F1.1°C 30.6°F-0.8°C 87% Calm Calm 2.0 mph3.2 kmh 30.03 in1016.9 mb 0.00 in0.0 mm 0.00 in/hr0.0 mm/hr 0.00 in0.0 mm
01:30 AM 34.0°F1.1°C 30.6°F-0.8°C 87% Calm Calm 3.0 mph4.8 kmh 30.03 in1016.9 mb 0.00 in0.0 mm 0.00 in/hr0.0 mm/hr 0.00 in0.0 mm
01:40 AM 34.0°F1.1°C 30.8°F-0.7°C 88% Calm Calm 1.0 mph1.6 kmh 30.01 in1016.3 mb 0.00 in0.0 mm 0.00 in/hr0.0 mm/hr 0.00 in0.0 mm
01:50 AM 34.0°F1.1°C 30.8°F-0.7°C 88% Calm Calm -- 30.01 in1016.3 mb 0.00 in0.0 mm 0.00 in/hr0.0 mm/hr 0.00 in0.0 mm
02:01 AM 33.9°F1.1°C 31.0°F-0.6°C 89% Calm Calm -- 30.01 in1016.3 mb 0.00 in0.0 mm 0.00 in/hr0.0 mm/hr 0.00 in0.0 mm
02:10 AM 34.2°F1.2°C 31.0°F-0.6°C 88% Calm Calm 1.0 mph1.6 kmh 30.02 in1016.6 mb 0.00 in0.0 mm 0.00 in/hr0.0 mm/hr 0.00 in0.0 mm
02:20 AM 34.4°F1.3°C 30.9°F-0.6°C 87% Calm Calm 2.0 mph3.2 kmh 30.03 in1016.9 mb 0.00 in0.0 mm 0.00 in/hr0.0 mm/hr 0.00 in0.0 mm
02:30 AM 34.6°F1.4°C 31.1°F-0.5°C 87% 4.0 mph SSW6.4 kmh SSW 5.0 mph8.0 kmh 30.03 in1016.9 mb 0.00 in0.0 mm 0.00 in/hr0.0 mm/hr 0.00 in0.0 mm
02:40 AM 34.7°F1.5°C 31.2°F-0.4°C 87% Calm Calm 4.0 mph6.4 kmh 30.03 in1016.9 mb 0.00 in0.0 mm 0.00 in/hr0.0 mm/hr 0.00 in0.0 mm
02:50 AM 34.7°F1.5°C 31.2°F-0.4°C 87% Calm Calm 1.0 mph1.6 kmh 30.02 in1016.6 mb 0.00 in0.0 mm 0.00 in/hr0.0 mm/hr 0.00 in0.0 mm
03:00 AM 34.7°F1.5°C 31.2°F-0.4°C 87% 1.0 mph S1.6 kmh S 4.0 mph6.4 kmh 30.02 in1016.6 mb 0.00 in0.0 mm 0.00 in/hr0.0 mm/hr 0.00 in0.0 mm
03:10 AM 34.7°F1.5°C 31.2°F-0.4°C 87% Calm Calm 4.0 mph6.4 kmh 30.02 in1016.6 mb 0.00 in0.0 mm 0.00 in/hr0.0 mm/hr 0.00 in0.0 mm
03:20 AM 35.0°F1.7°C 31.5°F-0.3°C 87% 5.0 mph S8.0 kmh S 6.0 mph9.7 kmh 30.02 in1016.6 mb 0.00 in0.0 mm 0.00 in/hr0.0 mm/hr 0.00 in0.0 mm
03:30 AM 35.2°F1.8°C 31.7°F-0.2°C 87% 3.0 mph S4.8 kmh S 10.0 mph16.1 kmh 30.02 in1016.6 mb 0.00 in0.0 mm 0.00 in/hr0.0 mm/hr 0.00 in0.0 mm
03:40 AM 35.2°F1.8°C 31.7°F-0.2°C 87% 5.0 mph SW8.0 kmh SW 7.0 mph11.3 kmh 30.02 in1016.6 mb 0.00 in0.0 mm 0.00 in/hr0.0 mm/hr 0.00 in0.0 mm
03:50 AM 35.2°F1.8°C 32.0°F0.0°C 88% Calm Calm 7.0 mph11.3 kmh 30.02 in1016.6 mb 0.00 in0.0 mm 0.00 in/hr0.0 mm/hr 0.00 in0.0 mm
04:01 AM 35.2°F1.8°C 32.0°F0.0°C 88% 4.0 mph S6.4 kmh S 9.0 mph14.5 kmh 30.02 in1016.6 mb 0.00 in0.0 mm 0.00 in/hr0.0 mm/hr 0.00 in0.0 mm
04:11 AM 35.2°F1.8°C 32.0°F0.0°C 88% 5.0 mph SSE8.0 kmh SSE 7.0 mph11.3 kmh 30.00 in1015.9 mb 0.00 in0.0 mm 0.00 in/hr0.0 mm/hr 0.00 in0.0 mm
04:20 AM 35.1°F1.7°C 31.9°F-0.1°C 88% 5.0 mph S8.0 kmh S 7.0 mph11.3 kmh 30.00 in1015.9 mb 0.00 in0.0 mm 0.00 in/hr0.0 mm/hr 0.00 in0.0 mm
04:30 AM 35.1°F1.7°C 32.2°F0.1°C 89% Calm Calm 6.0 mph9.7 kmh 30.00 in1015.9 mb 0.00 in0.0 mm 0.00 in/hr0.0 mm/hr 0.00 in0.0 mm
04:40 AM 35.1°F1.7°C 32.2°F0.1°C 89% 3.0 mph S4.8 kmh S 6.0 mph9.7 kmh 29.99 in1015.6 mb 0.00 in0.0 mm 0.00 in/hr0.0 mm/hr 0.00 in0.0 mm
04:50 AM 35.1°F1.7°C 32.2°F0.1°C 89% 1.0 mph S1.6 kmh S 11.0 mph17.7 kmh 29.98 in1015.2 mb 0.00 in0.0 mm 0.00 in/hr0.0 mm/hr 0.00 in0.0 mm
05:00 AM 35.1°F1.7°C 32.2°F0.1°C 89% 2.0 mph S3.2 kmh S 9.0 mph14.5 kmh 29.98 in1015.2 mb 0.00 in0.0 mm 0.00 in/hr0.0 mm/hr 0.00 in0.0 mm
05:10 AM 35.0°F1.7°C 32.1°F0.1°C 89% Calm Calm 10.0 mph16.1 kmh 29.98 in1015.2 mb 0.00 in0.0 mm 0.00 in/hr0.0 mm/hr 0.00 in0.0 mm
05:20 AM 35.0°F1.7°C 32.1°F0.1°C 89% Calm Calm 11.0 mph17.7 kmh 29.97 in1014.9 mb 0.00 in0.0 mm 0.00 in/hr0.0 mm/hr 0.00 in0.0 mm
05:30 AM 35.0°F1.7°C 32.4°F0.2°C 90% 9.0 mph S14.5 kmh S 9.0 mph14.5 kmh 29.98 in1015.2 mb 0.00 in0.0 mm 0.00 in/hr0.0 mm/hr 0.00 in0.0 mm
05:40 AM 35.1°F1.7°C 32.5°F0.3°C 90% 4.0 mph S6.4 kmh S 9.0 mph14.5 kmh 29.96 in1014.6 mb 0.00 in0.0 mm 0.00 in/hr0.0 mm/hr 0.00 in0.0 mm
05:50 AM 35.1°F1.7°C 32.5°F0.3°C 90% Calm Calm 7.0 mph11.3 kmh 29.95 in1014.2 mb 0.00 in0.0 mm 0.00 in/hr0.0 mm/hr 0.00 in0.0 mm
06:01 AM 35.2°F1.8°C 32.6°F0.3°C 90% 2.0 mph SSW3.2 kmh SSW 7.0 mph11.3 kmh 29.96 in1014.6 mb 0.00 in0.0 mm 0.00 in/hr0.0 mm/hr 0.00 in0.0 mm
06:10 AM 35.4°F1.9°C 32.8°F0.4°C 90% 4.0 mph S6.4 kmh S 8.0 mph12.9 kmh 29.96 in1014.6 mb 0.00 in0.0 mm 0.00 in/hr0.0 mm/hr 0.00 in0.0 mm
06:20 AM 35.4°F1.9°C 32.8°F0.4°C 90% 6.0 mph S9.7 kmh S 6.0 mph9.7 kmh 29.96 in1014.6 mb 0.00 in0.0 mm 0.00 in/hr0.0 mm/hr 0.00 in0.0 mm
06:30 AM 35.3°F1.8°C 32.7°F0.4°C 90% Calm Calm 7.0 mph11.3 kmh 29.96 in1014.6 mb 0.00 in0.0 mm 0.00 in/hr0.0 mm/hr 0.00 in0.0 mm
06:40 AM 35.4°F1.9°C 32.8°F0.4°C 90% 3.0 mph S4.8 kmh S 6.0 mph9.7 kmh 29.96 in1014.6 mb 0.00 in0.0 mm 0.00 in/hr0.0 mm/hr 0.00 in0.0 mm
06:50 AM 35.5°F1.9°C 32.9°F0.5°C 90% Calm Calm 6.0 mph9.7 kmh 29.96 in1014.6 mb 0.00 in0.0 mm 0.00 in/hr0.0 mm/hr 0.00 in0.0 mm
07:00 AM 35.6°F2.0°C 33.0°F0.6°C 90% 3.0 mph S4.8 kmh S 6.0 mph9.7 kmh 29.96 in1014.6 mb 0.00 in0.0 mm 0.00 in/hr0.0 mm/hr 0.00 in0.0 mm
07:10 AM 35.6°F2.0°C 33.2°F0.7°C 91% 2.0 mph S3.2 kmh S 4.0 mph6.4 kmh 29.96 in1014.6 mb 0.00 in0.0 mm 0.00 in/hr0.0 mm/hr 0.00 in0.0 mm
07:20 AM 35.6°F2.0°C 33.2°F0.7°C 91% 2.0 mph SW3.2 kmh SW 4.0 mph6.4 kmh 29.97 in1014.9 mb 0.00 in0.0 mm 0.00 in/hr0.0 mm/hr 0.00 in0.0 mm
07:30 AM 35.6°F2.0°C 33.5°F0.8°C 92% 2.0 mph SW3.2 kmh SW 11.0 mph17.7 kmh 29.97 in1014.9 mb 0.00 in0.0 mm 0.00 in/hr0.0 mm/hr 0.00 in0.0 mm
07:40 AM 35.7°F2.1°C 33.6°F0.9°C 92% 7.0 mph SW11.3 kmh SW 7.0 mph11.3 kmh 29.97 in1014.9 mb 0.00 in0.0 mm 0.00 in/hr0.0 mm/hr 0.00 in0.0 mm
07:50 AM 35.9°F2.2°C 33.8°F1.0°C 92% 6.0 mph SW9.7 kmh SW 14.0 mph22.5 kmh 29.97 in1014.9 mb 0.00 in0.0 mm 0.00 in/hr0.0 mm/hr 0.00 in0.0 mm
08:00 AM 36.0°F2.2°C 33.9°F1.1°C 92% 5.0 mph SW8.0 kmh SW 15.0 mph24.1 kmh 29.98 in1015.2 mb 0.00 in0.0 mm 0.00 in/hr0.0 mm/hr 0.00 in0.0 mm
08:10 AM 36.0°F2.2°C 33.9°F1.1°C 92% 4.0 mph WSW6.4 kmh WSW 17.0 mph27.4 kmh 29.98 in1015.2 mb 0.00 in0.0 mm 0.00 in/hr0.0 mm/hr 0.00 in0.0 mm
08:20 AM 35.9°F2.2°C 33.8°F1.0°C 92% 11.0 mph WSW17.7 kmh WSW 16.0 mph25.7 kmh 29.99 in1015.6 mb 0.01 in0.3 mm 0.06 in/hr1.5 mm/hr 0.01 in0.3 mm
08:30 AM 35.8°F2.1°C 33.7°F0.9°C 92% 14.0 mph WSW22.5 kmh WSW 15.0 mph24.1 kmh 29.99 in1015.6 mb 0.01 in0.3 mm 0.00 in/hr0.0 mm/hr 0.01 in0.3 mm
08:40 AM 35.9°F2.2°C 33.8°F1.0°C 92% 14.0 mph WSW22.5 kmh WSW 20.0 mph32.2 kmh 29.99 in1015.6 mb 0.01 in0.3 mm 0.00 in/hr0.0 mm/hr 0.01 in0.3 mm
08:50 AM 36.0°F2.2°C 33.9°F1.1°C 92% 7.0 mph WSW11.3 kmh WSW 16.0 mph25.7 kmh 29.99 in1015.6 mb 0.01 in0.3 mm 0.00 in/hr0.0 mm/hr 0.01 in0.3 mm
09:00 AM 36.1°F2.3°C 34.0°F1.1°C 92% 11.0 mph WSW17.7 kmh WSW 16.0 mph25.7 kmh 30.00 in1015.9 mb 0.01 in0.3 mm 0.00 in/hr0.0 mm/hr 0.01 in0.3 mm
09:10 AM 36.2°F2.3°C 33.8°F1.0°C 91% 16.0 mph WSW25.7 kmh WSW 20.0 mph32.2 kmh 30.01 in1016.3 mb 0.01 in0.3 mm 0.00 in/hr0.0 mm/hr 0.01 in0.3 mm
09:20 AM 36.2°F2.3°C 33.6°F0.9°C 90% 20.0 mph W32.2 kmh W 26.0 mph41.8 kmh 30.01 in1016.3 mb 0.00 in0.0 mm 0.00 in/hr0.0 mm/hr 0.01 in0.3 mm
09:30 AM 35.9°F2.2°C 32.4°F0.2°C 87% 23.0 mph WSW37.0 kmh WSW 32.0 mph51.5 kmh 30.02 in1016.6 mb 0.00 in0.0 mm 0.00 in/hr0.0 mm/hr 0.01 in0.3 mm
09:40 AM 35.8°F2.1°C 31.7°F-0.2°C 85% 7.0 mph WNW11.3 kmh WNW 29.0 mph46.7 kmh 30.03 in1016.9 mb 0.00 in0.0 mm 0.00 in/hr0.0 mm/hr 0.01 in0.3 mm
09:50 AM 35.9°F2.2°C 31.6°F-0.2°C 84% 18.0 mph W29.0 kmh W 29.0 mph46.7 kmh 30.05 in1017.6 mb 0.00 in0.0 mm 0.00 in/hr0.0 mm/hr 0.01 in0.3 mm
10:00 AM 35.6°F2.0°C 30.7°F-0.7°C 82% 26.0 mph WSW41.8 kmh WSW 33.0 mph53.1 kmh 30.06 in1017.9 mb 0.00 in0.0 mm 0.00 in/hr0.0 mm/hr 0.01 in0.3 mm
10:10 AM 35.5°F1.9°C 30.3°F-0.9°C 81% 16.0 mph WSW25.7 kmh WSW 32.0 mph51.5 kmh 30.07 in1018.3 mb 0.00 in0.0 mm 0.00 in/hr0.0 mm/hr 0.01 in0.3 mm
10:20 AM 35.4°F1.9°C 29.2°F-1.6°C 78% 17.0 mph WSW27.4 kmh WSW 32.0 mph51.5 kmh 30.08 in1018.6 mb 0.00 in0.0 mm 0.00 in/hr0.0 mm/hr 0.01 in0.3 mm
10:30 AM 35.9°F2.2°C 29.7°F-1.3°C 78% 16.0 mph WSW25.7 kmh WSW 27.0 mph43.5 kmh 30.08 in1018.6 mb 0.00 in0.0 mm 0.00 in/hr0.0 mm/hr 0.01 in0.3 mm
10:50 AM 37.0°F2.8°C 30.5°F-0.8°C 77% 16.0 mph W25.7 kmh W 24.0 mph38.6 kmh 30.10 in1019.3 mb 0.00 in0.0 mm 0.00 in/hr0.0 mm/hr 0.01 in0.3 mm
11:00 AM 37.2°F2.9°C 30.0°F-1.1°C 75% 11.0 mph W17.7 kmh W 24.0 mph38.6 kmh 30.11 in1019.6 mb 0.00 in0.0 mm 0.00 in/hr0.0 mm/hr 0.01 in0.3 mm
11:10 AM 37.2°F2.9°C 29.4°F-1.4°C 73% 18.0 mph WSW29.0 kmh WSW 29.0 mph46.7 kmh 30.12 in1020.0 mb 0.00 in0.0 mm 0.00 in/hr0.0 mm/hr 0.01 in0.3 mm
11:20 AM 37.1°F2.8°C 28.9°F-1.7°C 72% 21.0 mph W33.8 kmh W 27.0 mph43.5 kmh 30.13 in1020.3 mb 0.00 in0.0 mm 0.00 in/hr0.0 mm/hr 0.01 in0.3 mm
11:30 AM 37.4°F3.0°C 29.6°F-1.3°C 73% 15.0 mph SW24.1 kmh SW 28.0 mph45.1 kmh 30.13 in1020.3 mb 0.00 in0.0 mm 0.00 in/hr0.0 mm/hr 0.01 in0.3 mm
11:40 AM 38.0°F3.3°C 28.8°F-1.8°C 69% 15.0 mph WSW24.1 kmh WSW 32.0 mph51.5 kmh 30.14 in1020.7 mb 0.00 in0.0 mm 0.00 in/hr0.0 mm/hr 0.01 in0.3 mm
11:50 AM 37.9°F3.3°C 27.2°F-2.7°C 65% 12.0 mph WNW19.3 kmh WNW 29.0 mph46.7 kmh 30.14 in1020.7 mb 0.00 in0.0 mm 0.00 in/hr0.0 mm/hr 0.01 in0.3 mm
12:00 PM 38.5°F3.6°C 27.0°F-2.8°C 63% 14.0 mph W22.5 kmh W 22.0 mph35.4 kmh 30.14 in1020.7 mb 0.00 in0.0 mm 0.00 in/hr0.0 mm/hr 0.01 in0.3 mm
12:10 PM 38.8°F3.8°C 26.9°F-2.8°C 62% 18.0 mph W29.0 kmh W 26.0 mph41.8 kmh 30.15 in1021.0 mb 0.00 in0.0 mm 0.00 in/hr0.0 mm/hr 0.01 in0.3 mm
12:20 PM 38.5°F3.6°C 25.0°F-3.9°C 58% 12.0 mph W19.3 kmh W 33.0 mph53.1 kmh 30.15 in1021.0 mb 0.00 in0.0 mm 0.00 in/hr0.0 mm/hr 0.01 in0.3 mm
12:30 PM 39.5°F4.2°C 27.6°F-2.4°C 62% 13.0 mph W20.9 kmh W 23.0 mph37.0 kmh 30.15 in1021.0 mb 0.00 in0.0 mm 0.00 in/hr0.0 mm/hr 0.01 in0.3 mm
12:40 PM 39.5°F4.2°C 22.9°F-5.1°C 51% 14.0 mph W22.5 kmh W 27.0 mph43.5 kmh 30.15 in1021.0 mb 0.00 in0.0 mm 0.00 in/hr0.0 mm/hr 0.01 in0.3 mm
12:50 PM 40.3°F4.6°C 24.5°F-4.2°C 53% 13.0 mph W20.9 kmh W 21.0 mph33.8 kmh 30.16 in1021.3 mb 0.00 in0.0 mm 0.00 in/hr0.0 mm/hr 0.01 in0.3 mm
01:00 PM 41.0°F5.0°C 24.7°F-4.1°C 52% 10.0 mph W16.1 kmh W 20.0 mph32.2 kmh 30.16 in1021.3 mb 0.00 in0.0 mm 0.00 in/hr0.0 mm/hr 0.01 in0.3 mm
01:10 PM 40.3°F4.6°C 22.7°F-5.2°C 49% 12.0 mph W19.3 kmh W 25.0 mph40.2 kmh 30.16 in1021.3 mb 0.00 in0.0 mm 0.00 in/hr0.0 mm/hr 0.01 in0.3 mm
01:20 PM 40.6°F4.8°C 23.9°F-4.5°C 51% 7.0 mph W11.3 kmh W 25.0 mph40.2 kmh 30.17 in1021.7 mb 0.00 in0.0 mm 0.00 in/hr0.0 mm/hr 0.01 in0.3 mm
01:30 PM 40.6°F4.8°C 23.4°F-4.8°C 50% 17.0 mph WSW27.4 kmh WSW 21.0 mph33.8 kmh 30.17 in1021.7 mb 0.00 in0.0 mm 0.00 in/hr0.0 mm/hr 0.01 in0.3 mm
01:50 PM 40.8°F4.9°C 23.6°F-4.7°C 50% 18.0 mph W29.0 kmh W 27.0 mph43.5 kmh 30.18 in1022.0 mb 0.00 in0.0 mm 0.00 in/hr0.0 mm/hr 0.01 in0.3 mm
02:00 PM 40.5°F4.7°C 22.9°F-5.1°C 49% 11.0 mph NW17.7 kmh NW 27.0 mph43.5 kmh 30.18 in1022.0 mb 0.00 in0.0 mm 0.00 in/hr0.0 mm/hr 0.01 in0.3 mm
02:10 PM 40.8°F4.9°C 21.6°F-5.8°C 46% 9.0 mph NW14.5 kmh NW 23.0 mph37.0 kmh 30.18 in1022.0 mb 0.00 in0.0 mm 0.00 in/hr0.0 mm/hr 0.01 in0.3 mm
02:20 PM 41.3°F5.2°C 22.1°F-5.5°C 46% 13.0 mph W20.9 kmh W 21.0 mph33.8 kmh 30.18 in1022.0 mb 0.00 in0.0 mm 0.00 in/hr0.0 mm/hr 0.01 in0.3 mm
02:30 PM 40.2°F4.6°C 20.6°F-6.3°C 45% 13.0 mph WSW20.9 kmh WSW 27.0 mph43.5 kmh 30.19 in1022.4 mb 0.00 in0.0 mm 0.00 in/hr0.0 mm/hr 0.01 in0.3 mm
02:40 PM 40.0°F4.4°C 20.4°F-6.4°C 45% 15.0 mph WNW24.1 kmh WNW 29.0 mph46.7 kmh 30.20 in1022.7 mb 0.00 in0.0 mm 0.00 in/hr0.0 mm/hr 0.01 in0.3 mm
02:50 PM 40.6°F4.8°C 22.0°F-5.6°C 47% 12.0 mph W19.3 kmh W 22.0 mph35.4 kmh 30.20 in1022.7 mb 0.00 in0.0 mm 0.00 in/hr0.0 mm/hr 0.01 in0.3 mm
03:00 PM 40.6°F4.8°C 21.5°F-5.8°C 46% 12.0 mph WSW19.3 kmh WSW 23.0 mph37.0 kmh 30.21 in1023.0 mb 0.00 in0.0 mm 0.00 in/hr0.0 mm/hr 0.01 in0.3 mm
03:10 PM 40.6°F4.8°C 22.5°F-5.3°C 48% 10.0 mph WNW16.1 kmh WNW 22.0 mph35.4 kmh 30.22 in1023.4 mb 0.00 in0.0 mm 0.00 in/hr0.0 mm/hr 0.01 in0.3 mm
03:20 PM 40.9°F4.9°C 22.7°F-5.2°C 48% 20.0 mph WSW32.2 kmh WSW 20.0 mph32.2 kmh 30.22 in1023.4 mb 0.00 in0.0 mm 0.00 in/hr0.0 mm/hr 0.01 in0.3 mm
03:30 PM 40.5°F4.7°C 20.9°F-6.2°C 45% 23.0 mph W37.0 kmh W 23.0 mph37.0 kmh 30.23 in1023.7 mb 0.00 in0.0 mm 0.00 in/hr0.0 mm/hr 0.01 in0.3 mm
03:40 PM 39.8°F4.3°C 20.2°F-6.6°C 45% 18.0 mph WSW29.0 kmh WSW 29.0 mph46.7 kmh 30.23 in1023.7 mb 0.00 in0.0 mm 0.00 in/hr0.0 mm/hr 0.01 in0.3 mm
03:50 PM 39.8°F4.3°C 19.7°F-6.8°C 44% 18.0 mph WSW29.0 kmh WSW 23.0 mph37.0 kmh 30.24 in1024.0 mb 0.00 in0.0 mm 0.00 in/hr0.0 mm/hr 0.01 in0.3 mm
04:00 PM 39.0°F3.9°C 19.5°F-6.9°C 45% 15.0 mph W24.1 kmh W 28.0 mph45.1 kmh 30.24 in1024.0 mb 0.00 in0.0 mm 0.00 in/hr0.0 mm/hr 0.01 in0.3 mm
04:10 PM 38.5°F3.6°C 19.0°F-7.2°C 45% 16.0 mph W25.7 kmh W 28.0 mph45.1 kmh 30.25 in1024.4 mb 0.00 in0.0 mm 0.00 in/hr0.0 mm/hr 0.01 in0.3 mm
04:20 PM 38.5°F3.6°C 19.5°F-6.9°C 46% 6.0 mph W9.7 kmh W 23.0 mph37.0 kmh 30.25 in1024.4 mb 0.00 in0.0 mm 0.00 in/hr0.0 mm/hr 0.01 in0.3 mm
04:30 PM 38.1°F3.4°C 18.7°F-7.4°C 45% 12.0 mph WNW19.3 kmh WNW 21.0 mph33.8 kmh 30.25 in1024.4 mb 0.00 in0.0 mm 0.00 in/hr0.0 mm/hr 0.01 in0.3 mm
04:40 PM 37.9°F3.3°C 19.0°F-7.2°C 46% 14.0 mph WSW22.5 kmh WSW 20.0 mph32.2 kmh 30.26 in1024.7 mb 0.00 in0.0 mm 0.00 in/hr0.0 mm/hr 0.01 in0.3 mm
04:50 PM 37.3°F2.9°C 18.4°F-7.6°C 46% 7.0 mph SW11.3 kmh SW 22.0 mph35.4 kmh 30.26 in1024.7 mb 0.00 in0.0 mm 0.00 in/hr0.0 mm/hr 0.01 in0.3 mm
05:00 PM 37.0°F2.8°C 19.2°F-7.1°C 48% 13.0 mph WSW20.9 kmh WSW 23.0 mph37.0 kmh 30.26 in1024.7 mb 0.00 in0.0 mm 0.00 in/hr0.0 mm/hr 0.01 in0.3 mm
05:10 PM 36.6°F2.6°C 18.3°F-7.6°C 47% 17.0 mph WSW27.4 kmh WSW 21.0 mph33.8 kmh 30.26 in1024.7 mb 0.00 in0.0 mm 0.00 in/hr0.0 mm/hr 0.01 in0.3 mm
05:20 PM 36.4°F2.4°C 17.6°F-8.0°C 46% 12.0 mph WSW19.3 kmh WSW 21.0 mph33.8 kmh 30.27 in1025.1 mb 0.00 in0.0 mm 0.00 in/hr0.0 mm/hr 0.01 in0.3 mm
05:30 PM 36.0°F2.2°C 16.7°F-8.5°C 45% 13.0 mph W20.9 kmh W 22.0 mph35.4 kmh 30.27 in1025.1 mb 0.00 in0.0 mm 0.00 in/hr0.0 mm/hr 0.01 in0.3 mm
05:40 PM 35.7°F2.1°C 17.0°F-8.3°C 46% 10.0 mph W16.1 kmh W 18.0 mph29.0 kmh 30.27 in1025.1 mb 0.00 in0.0 mm 0.00 in/hr0.0 mm/hr 0.01 in0.3 mm
05:50 PM 35.3°F1.8°C 17.1°F-8.3°C 47% 12.0 mph WSW19.3 kmh WSW 16.0 mph25.7 kmh 30.28 in1025.4 mb 0.00 in0.0 mm 0.00 in/hr0.0 mm/hr 0.01 in0.3 mm
06:00 PM 34.9°F1.6°C 18.2°F-7.7°C 50% 5.0 mph WSW8.0 kmh WSW 16.0 mph25.7 kmh 30.28 in1025.4 mb 0.00 in0.0 mm 0.00 in/hr0.0 mm/hr 0.01 in0.3 mm
06:10 PM 34.6°F1.4°C 18.3°F-7.6°C 51% 10.0 mph W16.1 kmh W 13.0 mph20.9 kmh 30.29 in1025.7 mb 0.00 in0.0 mm 0.00 in/hr0.0 mm/hr 0.01 in0.3 mm
06:20 PM 34.1°F1.2°C 18.3°F-7.6°C 52% 8.0 mph W12.9 kmh W 11.0 mph17.7 kmh 30.29 in1025.7 mb 0.00 in0.0 mm 0.00 in/hr0.0 mm/hr 0.01 in0.3 mm
06:30 PM 33.8°F1.0°C 18.5°F-7.5°C 53% 9.0 mph W14.5 kmh W 13.0 mph20.9 kmh 30.30 in1026.1 mb 0.00 in0.0 mm 0.00 in/hr0.0 mm/hr 0.01 in0.3 mm
06:40 PM 33.8°F1.0°C 18.1°F-7.7°C 52% 6.0 mph W9.7 kmh W 16.0 mph25.7 kmh 30.30 in1026.1 mb 0.00 in0.0 mm 0.00 in/hr0.0 mm/hr 0.01 in0.3 mm
06:50 PM 33.8°F1.0°C 17.1°F-8.3°C 50% 11.0 mph W17.7 kmh W 17.0 mph27.4 kmh 30.30 in1026.1 mb 0.00 in0.0 mm 0.00 in/hr0.0 mm/hr 0.01 in0.3 mm
07:00 PM 33.5°F0.8°C 16.9°F-8.4°C 50% 7.0 mph W11.3 kmh W 15.0 mph24.1 kmh 30.30 in1026.1 mb 0.00 in0.0 mm 0.00 in/hr0.0 mm/hr 0.01 in0.3 mm
07:10 PM 33.3°F0.7°C 17.1°F-8.3°C 51% 6.0 mph W9.7 kmh W 12.0 mph19.3 kmh 30.31 in1026.4 mb 0.00 in0.0 mm 0.00 in/hr0.0 mm/hr 0.01 in0.3 mm
07:20 PM 32.9°F0.5°C 17.2°F-8.2°C 52% 6.0 mph W9.7 kmh W 11.0 mph17.7 kmh 30.31 in1026.4 mb 0.00 in0.0 mm 0.00 in/hr0.0 mm/hr 0.01 in0.3 mm
07:30 PM 32.3°F0.2°C 17.1°F-8.3°C 53% Calm Calm 7.0 mph11.3 kmh 30.31 in1026.4 mb 0.00 in0.0 mm 0.00 in/hr0.0 mm/hr 0.01 in0.3 mm
07:40 PM 32.0°F0.0°C 17.3°F-8.2°C 54% 7.0 mph WSW11.3 kmh WSW 9.0 mph14.5 kmh 30.31 in1026.4 mb 0.00 in0.0 mm 0.00 in/hr0.0 mm/hr 0.01 in0.3 mm
07:50 PM 31.9°F-0.1°C 17.2°F-8.2°C 54% 6.0 mph WSW9.7 kmh WSW 9.0 mph14.5 kmh 30.32 in1026.8 mb 0.00 in0.0 mm 0.00 in/hr0.0 mm/hr 0.01 in0.3 mm
08:01 PM 31.4°F-0.3°C 17.5°F-8.1°C 56% 6.0 mph SW9.7 kmh SW 6.0 mph9.7 kmh 30.32 in1026.8 mb 0.00 in0.0 mm 0.00 in/hr0.0 mm/hr 0.01 in0.3 mm
08:10 PM 31.5°F-0.3°C 17.6°F-8.0°C 56% 2.0 mph WSW3.2 kmh WSW 7.0 mph11.3 kmh 30.31 in1026.4 mb 0.00 in0.0 mm 0.00 in/hr0.0 mm/hr 0.01 in0.3 mm
08:20 PM 31.5°F-0.3°C 17.6°F-8.0°C 56% 3.0 mph WSW4.8 kmh WSW 4.0 mph6.4 kmh 30.31 in1026.4 mb 0.00 in0.0 mm 0.00 in/hr0.0 mm/hr 0.01 in0.3 mm
08:30 PM 31.4°F-0.3°C 17.5°F-8.1°C 56% 1.0 mph SW1.6 kmh SW 6.0 mph9.7 kmh 30.31 in1026.4 mb 0.00 in0.0 mm 0.00 in/hr0.0 mm/hr 0.01 in0.3 mm
08:40 PM 31.2°F-0.4°C 17.8°F-7.9°C 57% Calm Calm 3.0 mph4.8 kmh 30.31 in1026.4 mb 0.00 in0.0 mm 0.00 in/hr0.0 mm/hr 0.01 in0.3 mm
08:50 PM 30.6°F-0.8°C 17.6°F-8.0°C 58% Calm Calm 3.0 mph4.8 kmh 30.31 in1026.4 mb 0.00 in0.0 mm 0.00 in/hr0.0 mm/hr 0.01 in0.3 mm
09:00 PM 30.3°F-0.9°C 18.1°F-7.7°C 60% Calm Calm 3.0 mph4.8 kmh 30.31 in1026.4 mb 0.00 in0.0 mm 0.00 in/hr0.0 mm/hr 0.01 in0.3 mm
09:10 PM 29.8°F-1.2°C 18.8°F-7.3°C 63% Calm Calm 2.0 mph3.2 kmh 30.31 in1026.4 mb 0.00 in0.0 mm 0.00 in/hr0.0 mm/hr 0.01 in0.3 mm
09:20 PM 29.8°F-1.2°C 18.8°F-7.3°C 63% 1.0 mph SW1.6 kmh SW 2.0 mph3.2 kmh 30.31 in1026.4 mb 0.00 in0.0 mm 0.00 in/hr0.0 mm/hr 0.01 in0.3 mm
09:30 PM 29.0°F-1.7°C 18.7°F-7.4°C 65% 3.0 mph SSW4.8 kmh SSW 4.0 mph6.4 kmh 30.30 in1026.1 mb 0.00 in0.0 mm 0.00 in/hr0.0 mm/hr 0.01 in0.3 mm
09:40 PM 29.6°F-1.3°C 18.9°F-7.3°C 64% 3.0 mph SSW4.8 kmh SSW 3.0 mph4.8 kmh 30.30 in1026.1 mb 0.00 in0.0 mm 0.00 in/hr0.0 mm/hr 0.01 in0.3 mm
09:50 PM 30.2°F-1.0°C 18.4°F-7.6°C 61% 2.0 mph SW3.2 kmh SW 3.0 mph4.8 kmh 30.30 in1026.1 mb 0.00 in0.0 mm 0.00 in/hr0.0 mm/hr 0.01 in0.3 mm
10:01 PM 30.2°F-1.0°C 18.0°F-7.8°C 60% 1.0 mph SW1.6 kmh SW 4.0 mph6.4 kmh 30.30 in1026.1 mb 0.00 in0.0 mm 0.00 in/hr0.0 mm/hr 0.01 in0.3 mm
10:10 PM 30.3°F-0.9°C 18.1°F-7.7°C 60% Calm Calm 4.0 mph6.4 kmh 30.30 in1026.1 mb 0.00 in0.0 mm 0.00 in/hr0.0 mm/hr 0.01 in0.3 mm
10:20 PM 30.3°F-0.9°C 18.1°F-7.7°C 60% 3.0 mph SW4.8 kmh SW 5.0 mph8.0 kmh 30.30 in1026.1 mb 0.00 in0.0 mm 0.00 in/hr0.0 mm/hr 0.01 in0.3 mm
10:30 PM 30.6°F-0.8°C 18.4°F-7.6°C 60% 4.0 mph WSW6.4 kmh WSW 6.0 mph9.7 kmh 30.30 in1026.1 mb 0.00 in0.0 mm 0.00 in/hr0.0 mm/hr 0.01 in0.3 mm
10:40 PM 30.9°F-0.6°C 18.7°F-7.4°C 60% 2.0 mph SW3.2 kmh SW 9.0 mph14.5 kmh 30.30 in1026.1 mb 0.00 in0.0 mm 0.00 in/hr0.0 mm/hr 0.01 in0.3 mm
10:50 PM 31.1°F-0.5°C 19.2°F-7.1°C 61% Calm Calm 10.0 mph16.1 kmh 30.30 in1026.1 mb 0.00 in0.0 mm 0.00 in/hr0.0 mm/hr 0.01 in0.3 mm
11:00 PM 30.8°F-0.7°C 19.3°F-7.1°C 62% 6.0 mph SW9.7 kmh SW 7.0 mph11.3 kmh 30.29 in1025.7 mb 0.00 in0.0 mm 0.00 in/hr0.0 mm/hr 0.01 in0.3 mm
11:10 PM 30.8°F-0.7°C 19.7°F-6.8°C 63% 4.0 mph SW6.4 kmh SW 5.0 mph8.0 kmh 30.29 in1025.7 mb 0.00 in0.0 mm 0.00 in/hr0.0 mm/hr 0.01 in0.3 mm
11:20 PM 30.6°F-0.8°C 19.9°F-6.7°C 64% 3.0 mph WSW4.8 kmh WSW 6.0 mph9.7 kmh 30.30 in1026.1 mb 0.00 in0.0 mm 0.00 in/hr0.0 mm/hr 0.01 in0.3 mm
11:30 PM 30.5°F-0.8°C 20.2°F-6.6°C 65% 3.0 mph SW4.8 kmh SW 7.0 mph11.3 kmh 30.29 in1025.7 mb 0.00 in0.0 mm 0.00 in/hr0.0 mm/hr 0.01 in0.3 mm
11:40 PM 30.7°F-0.7°C 20.3°F-6.5°C 65% 4.0 mph SSW6.4 kmh SSW 7.0 mph11.3 kmh 30.29 in1025.7 mb 0.00 in0.0 mm 0.00 in/hr0.0 mm/hr 0.01 in0.3 mm
11:50 PM 30.8°F-0.7°C 20.8°F-6.2°C 66% 1.0 mph SW1.6 kmh SW 7.0 mph11.3 kmh 30.29 in1025.7 mb 0.00 in0.0 mm 0.00 in/hr0.0 mm/hr 0.01 in0.3 mm